createdAt,value
2019-02-23T00:00:13.367Z,8.98
2019-02-23T00:01:49.695Z,10.05
2019-02-23T00:03:24.159Z,9.00
2019-02-23T00:04:58.873Z,9.78
2019-02-23T00:06:33.556Z,10.28
2019-02-23T00:08:07.948Z,10.10
2019-02-23T00:09:42.667Z,11.33
2019-02-23T00:11:17.403Z,11.10
2019-02-23T00:12:52.035Z,12.18
2019-02-23T00:14:26.839Z,12.15
2019-02-23T00:16:01.474Z,11.40
2019-02-23T00:17:35.899Z,11.70
2019-02-23T00:19:10.302Z,11.20
2019-02-23T00:20:44.985Z,10.38
2019-02-23T00:22:19.730Z,10.72
2019-02-23T00:23:54.130Z,10.45
2019-02-23T00:25:28.504Z,10.18
2019-02-23T00:27:03.214Z,11.50
2019-02-23T00:28:38.006Z,11.35
2019-02-23T00:30:12.377Z,10.40
2019-02-23T00:31:46.765Z,10.18
2019-02-23T00:33:21.166Z,11.35
2019-02-23T00:34:55.574Z,11.15
2019-02-23T00:36:30.051Z,11.53
2019-02-23T00:38:04.504Z,11.55
2019-02-23T00:39:38.897Z,10.68
2019-02-23T00:41:13.367Z,10.93
2019-02-23T00:42:48.045Z,10.93
2019-02-23T00:44:22.450Z,10.75
2019-02-23T00:45:56.927Z,10.70
2019-02-23T00:47:31.405Z,10.18
2019-02-23T00:49:06.190Z,10.50
2019-02-23T00:50:40.583Z,9.63
2019-02-23T00:52:15.016Z,9.05
2019-02-23T00:53:49.726Z,9.95
2019-02-23T00:55:24.199Z,10.08
2019-02-23T00:56:58.570Z,10.40
2019-02-23T00:58:33.287Z,9.68
2019-02-23T01:00:09.339Z,9.05
2019-02-23T01:01:43.738Z,9.60
2019-02-23T01:03:18.675Z,9.40
2019-02-23T01:04:53.395Z,9.65
2019-02-23T01:06:27.894Z,9.95
2019-02-23T01:08:02.786Z,10.15
2019-02-23T01:09:37.153Z,9.98
2019-02-23T01:11:11.525Z,9.40
2019-02-23T01:12:46.640Z,10.18
2019-02-23T01:14:21.767Z,9.53
2019-02-23T01:15:58.434Z,9.68
2019-02-23T01:17:33.097Z,10.60
2019-02-23T01:19:07.911Z,10.35
2019-02-23T01:20:43.063Z,10.05
2019-02-23T01:22:18.139Z,10.28
2019-02-23T01:23:52.955Z,9.83
2019-02-23T01:25:27.762Z,10.32
2019-02-23T01:27:02.643Z,10.10
2019-02-23T01:28:37.739Z,9.95
2019-02-23T01:30:13.349Z,9.60
2019-02-23T01:31:48.467Z,10.82
2019-02-23T01:33:24.159Z,9.28
2019-02-23T01:34:58.950Z,9.58
2019-02-23T01:36:33.774Z,9.53
2019-02-23T01:38:08.640Z,9.85
2019-02-23T01:39:43.755Z,9.20
2019-02-23T01:41:18.635Z,9.68
2019-02-23T01:42:53.608Z,9.98
2019-02-23T01:44:28.434Z,9.60
2019-02-23T01:46:03.550Z,10.20
2019-02-23T01:47:38.442Z,9.63
2019-02-23T01:49:13.290Z,10.05
2019-02-23T01:50:48.729Z,10.43
2019-02-23T01:52:24.001Z,9.73
2019-02-23T01:54:03.658Z,8.95
2019-02-23T01:55:38.696Z,9.58
2019-02-23T01:57:13.793Z,9.08
2019-02-23T01:58:48.601Z,8.68
2019-02-23T02:00:24.163Z,8.73
2019-02-23T02:01:58.934Z,8.80
2019-02-23T02:03:34.071Z,9.13
2019-02-23T02:05:09.001Z,8.78
2019-02-23T02:06:43.770Z,10.00
2019-02-23T02:08:18.334Z,10.70
2019-02-23T02:09:53.214Z,8.95
2019-02-23T02:11:27.838Z,9.08
2019-02-23T02:13:02.850Z,9.10
2019-02-23T02:14:37.561Z,9.75
2019-02-23T02:16:12.219Z,8.90
2019-02-23T02:17:46.686Z,8.93
2019-02-23T02:19:21.060Z,9.53
2019-02-23T02:20:55.766Z,10.10
2019-02-23T02:22:30.479Z,9.50
2019-02-23T02:24:04.949Z,10.63
2019-02-23T02:25:39.654Z,10.08
2019-02-23T02:27:14.133Z,10.25
2019-02-23T02:28:48.533Z,10.43
2019-02-23T02:30:22.911Z,10.05
2019-02-23T02:31:57.611Z,10.03
2019-02-23T02:33:32.304Z,10.48
2019-02-23T02:35:07.072Z,11.80
2019-02-23T02:36:41.469Z,12.60
2019-02-23T02:38:15.938Z,12.95
2019-02-23T02:39:50.732Z,12.07
2019-02-23T02:41:25.530Z,10.85
2019-02-23T02:43:00.657Z,12.58
2019-02-23T02:44:35.478Z,12.25
2019-02-23T02:46:10.697Z,11.45
2019-02-23T02:47:45.491Z,10.80
2019-02-23T02:49:20.681Z,9.88
2019-02-23T02:50:55.525Z,9.55
2019-02-23T02:52:30.358Z,10.20
2019-02-23T02:54:06.146Z,9.70
2019-02-23T02:55:40.978Z,10.13
2019-02-23T02:57:16.123Z,9.08
2019-02-23T02:58:51.000Z,9.30
2019-02-23T03:00:25.864Z,8.90
2019-02-23T03:02:00.682Z,9.75
2019-02-23T03:03:35.511Z,9.35
2019-02-23T03:05:10.601Z,9.13
2019-02-23T03:06:45.952Z,9.58
2019-02-23T03:08:21.011Z,9.28
2019-02-23T03:09:55.817Z,9.15
2019-02-23T03:11:30.792Z,9.08
2019-02-23T03:13:06.095Z,8.93
2019-02-23T03:14:40.891Z,8.78
2019-02-23T03:16:16.370Z,8.25
2019-02-23T03:17:50.806Z,8.83
2019-02-23T03:19:25.169Z,9.35
2019-02-23T03:21:00.167Z,8.98
2019-02-23T03:22:34.887Z,8.98
2019-02-23T03:24:09.291Z,8.98
2019-02-23T03:25:44.029Z,9.73
2019-02-23T03:27:18.742Z,8.80
2019-02-23T03:28:53.133Z,8.75
2019-02-23T03:30:27.537Z,8.33
2019-02-23T03:32:01.969Z,8.30
2019-02-23T03:33:37.140Z,8.20
2019-02-23T03:35:11.521Z,9.40
2019-02-23T03:36:45.906Z,8.75
2019-02-23T03:38:20.863Z,8.78
2019-02-23T03:39:55.582Z,9.13
2019-02-23T03:41:30.138Z,9.10
2019-02-23T03:43:04.568Z,8.65
2019-02-23T03:44:39.239Z,8.48
2019-02-23T03:46:13.674Z,9.00
2019-02-23T03:47:48.386Z,8.40
2019-02-23T03:49:23.189Z,8.45
2019-02-23T03:50:58.043Z,8.65
2019-02-23T03:52:32.480Z,8.15
2019-02-23T03:54:06.875Z,9.18
2019-02-23T03:55:41.418Z,8.33
2019-02-23T03:57:16.303Z,8.53
2019-02-23T03:58:50.725Z,8.10
2019-02-23T04:00:25.391Z,8.68
2019-02-23T04:02:00.058Z,7.30
2019-02-23T04:03:34.688Z,8.85
2019-02-23T04:05:09.886Z,8.15
2019-02-23T04:06:44.712Z,7.92
2019-02-23T04:08:19.075Z,8.60
2019-02-23T04:09:54.460Z,7.95
2019-02-23T04:11:28.846Z,8.15
2019-02-23T04:13:03.208Z,7.85
2019-02-23T04:14:37.641Z,7.75
2019-02-23T04:16:12.323Z,8.20
2019-02-23T04:17:47.042Z,7.97
2019-02-23T04:19:21.757Z,7.65
2019-02-23T04:21:01.846Z,8.18
2019-02-23T04:22:33.131Z,7.47
2019-02-23T04:24:07.890Z,7.95
2019-02-23T04:25:42.343Z,8.25
2019-02-23T04:27:16.714Z,8.48
2019-02-23T04:28:51.429Z,7.62
2019-02-23T04:30:26.136Z,7.45
2019-02-23T04:32:00.853Z,8.35
2019-02-23T04:33:35.990Z,8.18
2019-02-23T04:35:10.383Z,8.15
2019-02-23T04:36:44.775Z,8.30
2019-02-23T04:38:19.417Z,7.97
2019-02-23T04:39:53.783Z,7.60
2019-02-23T04:41:28.564Z,8.83
2019-02-23T04:43:03.294Z,8.28
2019-02-23T04:44:38.008Z,7.78
2019-02-23T04:46:12.393Z,8.43
2019-02-23T04:47:46.849Z,7.87
2019-02-23T04:49:21.558Z,8.00
2019-02-23T04:50:55.926Z,8.35
2019-02-23T04:52:30.587Z,9.20
2019-02-23T04:54:05.323Z,9.00
2019-02-23T04:55:40.129Z,8.38
2019-02-23T04:57:14.750Z,8.63
2019-02-23T04:58:49.117Z,8.05
2019-02-23T05:00:23.510Z,7.97
2019-02-23T05:01:57.919Z,8.38
2019-02-23T05:03:32.288Z,8.83
2019-02-23T05:05:07.975Z,8.05
2019-02-23T05:06:42.401Z,7.72
2019-02-23T05:08:16.835Z,9.15
2019-02-23T05:09:51.271Z,8.35
2019-02-23T05:11:25.731Z,8.68
2019-02-23T05:13:00.249Z,8.78
2019-02-23T05:14:35.151Z,9.50
2019-02-23T05:16:09.497Z,8.45
2019-02-23T05:17:44.363Z,9.53
2019-02-23T05:19:18.818Z,9.03
2019-02-23T05:20:53.217Z,9.10
2019-02-23T05:22:27.851Z,8.73
2019-02-23T05:24:02.496Z,8.83
2019-02-23T05:25:36.860Z,8.65
2019-02-23T05:27:11.934Z,9.78
2019-02-23T05:28:46.767Z,8.73
2019-02-23T05:30:21.838Z,9.73
2019-02-23T05:31:56.762Z,9.05
2019-02-23T05:33:31.123Z,8.88
2019-02-23T05:35:09.212Z,9.35
2019-02-23T05:36:43.581Z,8.40
2019-02-23T05:38:18.666Z,8.63
2019-02-23T05:39:53.034Z,9.33
2019-02-23T05:41:27.568Z,9.23
2019-02-23T05:43:02.682Z,9.28
2019-02-23T05:44:37.057Z,8.93
2019-02-23T05:46:12.014Z,8.43
2019-02-23T05:47:46.389Z,9.05
2019-02-23T05:49:20.769Z,8.58
2019-02-23T05:50:55.162Z,9.53
2019-02-23T05:52:29.767Z,8.98
2019-02-23T05:54:04.803Z,10.03
2019-02-23T05:55:39.161Z,9.03
2019-02-23T05:57:13.549Z,9.85
2019-02-23T05:58:48.549Z,9.23
2019-02-23T06:00:22.990Z,8.40
2019-02-23T06:01:57.374Z,10.05
2019-02-23T06:03:31.911Z,9.38
2019-02-23T06:05:06.625Z,9.18
2019-02-23T06:06:41.548Z,9.55
2019-02-23T06:08:16.110Z,8.83
2019-02-23T06:09:50.579Z,9.05
2019-02-23T06:11:24.934Z,9.23
2019-02-23T06:12:59.320Z,9.13
2019-02-23T06:14:33.915Z,9.35
2019-02-23T06:16:08.329Z,9.43
2019-02-23T06:17:42.693Z,9.33
2019-02-23T06:19:17.301Z,10.58
2019-02-23T06:20:52.111Z,9.50
2019-02-23T06:22:26.725Z,10.30
2019-02-23T06:24:01.105Z,11.68
2019-02-23T06:25:35.987Z,11.57
2019-02-23T06:27:10.486Z,10.32
2019-02-23T06:28:45.226Z,11.22
2019-02-23T06:30:19.690Z,10.58
2019-02-23T06:31:54.066Z,10.08
2019-02-23T06:33:29.134Z,9.30
2019-02-23T06:35:03.594Z,8.95
2019-02-23T06:36:38.226Z,9.50
2019-02-23T06:38:12.605Z,8.73
2019-02-23T06:39:47.267Z,9.10
2019-02-23T06:41:21.879Z,8.75
2019-02-23T06:42:57.928Z,9.40
2019-02-23T06:44:32.778Z,10.20
2019-02-23T06:46:07.278Z,8.30
2019-02-23T06:47:41.649Z,8.93
2019-02-23T06:49:16.209Z,8.18
2019-02-23T06:50:51.192Z,8.30
2019-02-23T06:52:25.872Z,8.10
2019-02-23T06:54:00.414Z,8.23
2019-02-23T06:55:35.157Z,8.65
2019-02-23T06:57:09.559Z,9.98
2019-02-23T06:58:44.073Z,9.58
2019-02-23T07:00:18.589Z,8.73
2019-02-23T07:01:53.385Z,8.85
2019-02-23T07:03:27.814Z,8.33
2019-02-23T07:05:02.516Z,8.35
2019-02-23T07:06:36.954Z,8.48
2019-02-23T07:08:11.329Z,8.43
2019-02-23T07:09:46.173Z,8.05
2019-02-23T07:11:20.636Z,8.50
2019-02-23T07:12:55.366Z,7.62
2019-02-23T07:14:29.862Z,8.23
2019-02-23T07:16:04.262Z,8.43
2019-02-23T07:17:38.977Z,8.20
2019-02-23T07:19:13.855Z,7.60
2019-02-23T07:20:48.229Z,7.87
2019-02-23T07:22:22.586Z,7.60
2019-02-23T07:23:57.548Z,7.97
2019-02-23T07:25:31.906Z,7.67
2019-02-23T07:27:06.408Z,7.45
2019-02-23T07:28:41.181Z,7.67
2019-02-23T07:30:15.683Z,7.85
2019-02-23T07:31:50.158Z,7.50
2019-02-23T07:33:32.835Z,8.00
2019-02-23T07:35:00.649Z,8.10
2019-02-23T07:36:35.327Z,7.35
2019-02-23T07:38:09.686Z,7.75
2019-02-23T07:39:44.356Z,7.78
2019-02-23T07:41:18.757Z,7.37
2019-02-23T07:42:53.385Z,8.43
2019-02-23T07:44:27.762Z,8.83
2019-02-23T07:46:02.133Z,8.80
2019-02-23T07:47:37.182Z,7.62
2019-02-23T07:49:11.974Z,7.33
2019-02-23T07:50:46.767Z,7.12
2019-02-23T07:52:26.313Z,6.95
2019-02-23T07:53:58.583Z,7.35
2019-02-23T07:55:33.369Z,7.75
2019-02-23T07:57:08.188Z,7.30
2019-02-23T07:58:43.716Z,7.83
2019-02-23T08:00:18.488Z,7.85
2019-02-23T08:01:53.269Z,7.70
2019-02-23T08:03:28.562Z,7.87
2019-02-23T08:05:03.782Z,8.13
2019-02-23T08:06:38.573Z,9.50
2019-02-23T08:08:12.966Z,8.03
2019-02-23T08:09:47.349Z,8.90
2019-02-23T08:11:21.986Z,7.78
2019-02-23T08:12:56.456Z,8.15
2019-02-23T08:14:30.813Z,9.10
2019-02-23T08:16:05.280Z,8.98
2019-02-23T08:17:39.908Z,8.85
2019-02-23T08:19:14.318Z,8.53
2019-02-23T08:20:48.682Z,8.93
2019-02-23T08:22:23.171Z,8.70
2019-02-23T08:23:58.245Z,8.33
2019-02-23T08:25:32.629Z,7.92
2019-02-23T08:27:07.485Z,8.38
2019-02-23T08:28:41.871Z,8.70
2019-02-23T08:30:16.329Z,8.70
2019-02-23T08:31:51.261Z,8.43
2019-02-23T08:33:25.889Z,8.93
2019-02-23T08:35:00.415Z,8.25
2019-02-23T08:36:35.318Z,9.15
2019-02-23T08:38:10.361Z,8.73
2019-02-23T08:39:44.991Z,8.50
2019-02-23T08:41:19.631Z,7.95
2019-02-23T08:42:54.234Z,8.75
2019-02-23T08:44:28.947Z,9.23
2019-02-23T08:46:03.815Z,8.53
2019-02-23T08:47:38.290Z,8.20
2019-02-23T08:49:12.686Z,7.45
2019-02-23T08:50:47.089Z,8.50
2019-02-23T08:52:21.486Z,8.95
2019-02-23T08:53:56.153Z,8.38
2019-02-23T08:55:30.501Z,9.10
2019-02-23T08:57:05.446Z,8.70
2019-02-23T08:58:40.060Z,8.05
2019-02-23T09:00:15.759Z,8.23
2019-02-23T09:01:50.970Z,8.10
2019-02-23T09:03:25.806Z,8.38
2019-02-23T09:05:00.422Z,8.73
2019-02-23T09:06:34.818Z,8.08
2019-02-23T09:08:09.201Z,7.20
2019-02-23T09:09:43.748Z,7.67
2019-02-23T09:11:18.366Z,7.92
2019-02-23T09:12:52.906Z,8.00
2019-02-23T09:14:27.539Z,7.72
2019-02-23T09:16:01.914Z,7.85
2019-02-23T09:17:36.706Z,7.83
2019-02-23T09:19:11.174Z,8.33
2019-02-23T09:20:46.254Z,6.92
2019-02-23T09:22:21.075Z,7.75
2019-02-23T09:23:55.439Z,7.08
2019-02-23T09:25:30.066Z,7.03
2019-02-23T09:27:04.803Z,7.47
2019-02-23T09:28:39.168Z,7.20
2019-02-23T09:30:14.054Z,7.58
2019-02-23T09:31:48.840Z,7.42
2019-02-23T09:33:23.333Z,7.20
2019-02-23T09:34:57.681Z,7.67
2019-02-23T09:36:32.383Z,7.50
2019-02-23T09:38:07.277Z,7.05
2019-02-23T09:39:41.627Z,7.05
2019-02-23T09:41:15.986Z,6.50
2019-02-23T09:42:50.699Z,6.75
2019-02-23T09:44:25.132Z,6.35
2019-02-23T09:45:59.527Z,6.92
2019-02-23T09:47:33.965Z,6.05
2019-02-23T09:49:08.334Z,7.33
2019-02-23T09:50:42.952Z,6.20
2019-02-23T09:52:17.583Z,6.45
2019-02-23T09:53:52.179Z,6.58
2019-02-23T09:55:26.546Z,6.50
2019-02-23T09:57:00.898Z,7.00
2019-02-23T09:58:35.291Z,7.08
2019-02-23T10:00:10.541Z,6.17
2019-02-23T10:01:44.918Z,6.62
2019-02-23T10:03:19.325Z,6.08
2019-02-23T10:04:54.234Z,6.33
2019-02-23T10:06:28.602Z,6.10
2019-02-23T10:08:03.450Z,6.08
2019-02-23T10:09:38.416Z,7.70
2019-02-23T10:11:13.065Z,6.58
2019-02-23T10:12:49.225Z,7.03
2019-02-23T10:14:23.914Z,5.95
2019-02-23T10:15:58.277Z,6.10
2019-02-23T10:17:35.678Z,5.67
2019-02-23T10:19:10.544Z,5.65
2019-02-23T10:20:45.163Z,5.58
2019-02-23T10:22:19.670Z,5.92
2019-02-23T10:23:54.313Z,6.17
2019-02-23T10:25:29.086Z,5.75
2019-02-23T10:27:03.966Z,6.17
2019-02-23T10:28:38.371Z,5.58
2019-02-23T10:30:13.214Z,5.67
2019-02-23T10:31:47.571Z,5.50
2019-02-23T10:33:22.107Z,5.03
2019-02-23T10:34:57.100Z,5.62
2019-02-23T10:36:31.718Z,5.08
2019-02-23T10:38:06.535Z,4.90
2019-02-23T10:39:41.367Z,5.03
2019-02-23T10:41:15.739Z,5.30
2019-02-23T10:42:53.462Z,5.50
2019-02-23T10:44:28.108Z,5.30
2019-02-23T10:46:02.926Z,3.87
2019-02-23T10:47:37.996Z,4.80
2019-02-23T10:49:13.153Z,4.72
2019-02-23T10:50:48.175Z,3.25
2019-02-23T10:52:23.191Z,3.90
2019-02-23T10:53:57.975Z,3.50
2019-02-23T10:55:33.025Z,3.45
2019-02-23T10:57:08.146Z,3.22
2019-02-23T10:58:43.252Z,2.37
2019-02-23T11:00:20.494Z,2.45
2019-02-23T11:01:55.592Z,4.28
2019-02-23T11:03:31.432Z,2.72
2019-02-23T11:05:07.487Z,3.25
2019-02-23T11:06:42.350Z,3.33
2019-02-23T11:08:20.814Z,3.58
2019-02-23T11:09:55.779Z,3.70
2019-02-23T11:11:30.710Z,3.95
2019-02-23T11:13:05.637Z,3.50
2019-02-23T11:14:40.447Z,3.37
2019-02-23T11:16:15.981Z,3.35
2019-02-23T11:17:50.780Z,3.60
2019-02-23T11:19:25.827Z,3.75
2019-02-23T11:21:00.613Z,2.60
2019-02-23T11:22:35.364Z,2.47
2019-02-23T11:24:10.814Z,2.80
2019-02-23T11:25:45.805Z,2.70
2019-02-23T11:27:20.580Z,2.72
2019-02-23T11:28:55.452Z,2.35
2019-02-23T11:30:30.388Z,2.17
2019-02-23T11:32:05.428Z,2.50
2019-02-23T11:33:40.474Z,3.37
2019-02-23T11:35:17.509Z,3.60
2019-02-23T11:36:52.337Z,3.08
2019-02-23T11:38:27.649Z,2.65
2019-02-23T11:40:02.485Z,2.67
2019-02-23T11:41:37.296Z,2.77
2019-02-23T11:43:12.035Z,3.10
2019-02-23T11:44:46.644Z,3.27
2019-02-23T11:46:21.400Z,3.17
2019-02-23T11:47:56.454Z,3.00
2019-02-23T11:49:31.722Z,2.90
2019-02-23T11:51:06.493Z,3.17
2019-02-23T11:52:42.741Z,3.05
2019-02-23T11:54:17.539Z,3.17
2019-02-23T11:55:52.566Z,2.80
2019-02-23T11:57:27.846Z,3.25
2019-02-23T11:59:02.650Z,2.90
2019-02-23T12:00:37.579Z,3.35
2019-02-23T12:02:12.389Z,3.40
2019-02-23T12:03:47.672Z,3.60
2019-02-23T12:05:22.833Z,3.60
2019-02-23T12:06:58.113Z,3.30
2019-02-23T12:08:33.133Z,3.40
2019-02-23T12:10:10.650Z,3.02
2019-02-23T12:11:45.471Z,3.52
2019-02-23T12:13:21.004Z,3.17
2019-02-23T12:14:57.229Z,3.08
2019-02-23T12:16:32.250Z,3.20
2019-02-23T12:18:07.337Z,3.37
2019-02-23T12:19:42.441Z,3.65
2019-02-23T12:21:17.229Z,3.35
2019-02-23T12:22:52.020Z,3.67
2019-02-23T12:24:27.084Z,3.60
2019-02-23T12:26:01.903Z,3.52
2019-02-23T12:27:36.685Z,3.35
2019-02-23T12:29:11.504Z,3.70
2019-02-23T12:30:46.541Z,3.42
2019-02-23T12:32:21.600Z,3.52
2019-02-23T12:33:56.648Z,3.37
2019-02-23T12:35:31.802Z,3.40
2019-02-23T12:37:07.073Z,3.40
2019-02-23T12:38:41.864Z,3.10
2019-02-23T12:40:16.647Z,3.60
2019-02-23T12:41:51.496Z,3.58
2019-02-23T12:43:26.306Z,3.83
2019-02-23T12:45:01.326Z,3.60
2019-02-23T12:46:36.597Z,3.45
2019-02-23T12:48:11.426Z,3.12
2019-02-23T12:49:46.221Z,3.70
2019-02-23T12:51:21.014Z,3.55
2019-02-23T12:52:56.076Z,3.60
2019-02-23T12:54:30.898Z,3.50
2019-02-23T12:56:05.685Z,3.47
2019-02-23T12:57:40.541Z,4.10
2019-02-23T12:59:15.290Z,3.80
2019-02-23T13:00:50.112Z,3.55
2019-02-23T13:02:24.938Z,4.15
2019-02-23T13:04:00.015Z,4.37
2019-02-23T13:05:35.051Z,4.20
2019-02-23T13:07:10.148Z,4.58
2019-02-23T13:09:14.811Z,4.85
2019-02-23T13:10:54.439Z,4.28
2019-02-23T13:12:56.796Z,4.40
2019-02-23T13:15:22.048Z,3.90
2019-02-23T13:17:37.075Z,4.58
2019-02-23T13:20:17.539Z,4.80
2019-02-23T13:22:14.661Z,4.05
2019-02-23T13:24:45.337Z,4.17
2019-02-23T13:27:10.985Z,4.15
2019-02-23T13:29:41.166Z,4.15
2019-02-23T13:32:07.201Z,4.55
2019-02-23T13:35:07.911Z,4.60
2019-02-23T13:37:50.738Z,4.25
2019-02-23T13:39:59.851Z,4.45
2019-02-23T13:42:41.345Z,4.20
2019-02-23T13:44:38.338Z,4.47
2019-02-23T13:46:44.021Z,4.75
2019-02-23T13:48:43.836Z,4.70
2019-02-23T13:51:09.630Z,4.92
2019-02-23T13:53:55.590Z,4.70
2019-02-23T13:56:32.466Z,4.78
2019-02-23T13:58:37.616Z,5.40
2019-02-23T14:00:54.784Z,5.20
2019-02-23T14:03:46.513Z,5.15
2019-02-23T14:05:52.699Z,5.50
2019-02-23T14:08:46.673Z,5.40
2019-02-23T14:11:19.375Z,5.33
2019-02-23T14:13:40.233Z,5.00
2019-02-23T14:16:14.825Z,5.28
2019-02-23T14:18:48.107Z,6.25
2019-02-23T14:21:14.100Z,5.75
2019-02-23T14:23:26.737Z,6.20
2019-02-23T14:25:49.262Z,6.17
2019-02-23T14:28:38.653Z,6.80
2019-02-23T14:31:01.713Z,7.33
2019-02-23T14:33:12.960Z,6.75
2019-02-23T14:35:14.188Z,7.20
2019-02-23T14:37:13.298Z,7.00
2019-02-23T14:39:42.326Z,7.62
2019-02-23T14:41:54.237Z,6.58
2019-02-23T14:43:59.668Z,6.45
2019-02-23T14:45:55.266Z,6.72
2019-02-23T14:48:01.174Z,7.05
2019-02-23T14:49:58.851Z,7.37
2019-02-23T14:52:11.745Z,6.70
2019-02-23T14:54:22.634Z,6.92
2019-02-23T14:56:26.141Z,6.92
2019-02-23T14:58:37.579Z,6.58
2019-02-23T15:00:35.620Z,6.20
2019-02-23T15:02:41.442Z,6.20
2019-02-23T15:04:57.533Z,6.58
2019-02-23T15:06:54.173Z,6.85
2019-02-23T15:09:19.150Z,6.87
2019-02-23T15:11:22.065Z,7.40
2019-02-23T15:13:22.743Z,6.65
2019-02-23T15:15:25.951Z,7.22
2019-02-23T15:17:32.943Z,7.25
2019-02-23T15:19:39.577Z,7.37
2019-02-23T15:21:40.367Z,6.95
2019-02-23T15:23:50.949Z,6.40
2019-02-23T15:26:00.665Z,6.20
2019-02-23T15:28:06.942Z,7.10
2019-02-23T15:30:14.934Z,6.45
2019-02-23T15:32:55.427Z,6.67
2019-02-23T15:35:09.641Z,6.80
2019-02-23T15:37:19.040Z,6.40
2019-02-23T15:39:44.888Z,7.33
2019-02-23T15:42:04.274Z,6.53
2019-02-23T15:44:01.703Z,7.05
2019-02-23T15:46:29.992Z,7.15
2019-02-23T15:48:48.152Z,6.85
2019-02-23T15:50:22.685Z,7.25
2019-02-23T15:51:57.223Z,7.17
2019-02-23T15:53:31.621Z,7.58
2019-02-23T15:55:06.102Z,7.45
2019-02-23T15:56:40.461Z,7.92
2019-02-23T15:58:14.820Z,7.22
2019-02-23T15:59:49.259Z,8.10
2019-02-23T16:01:23.907Z,7.03
2019-02-23T16:02:58.271Z,7.90
2019-02-23T16:04:32.861Z,7.58
2019-02-23T16:06:07.596Z,7.67
2019-02-23T16:07:42.056Z,7.97
2019-02-23T16:09:16.774Z,7.08
2019-02-23T16:10:51.510Z,7.75
2019-02-23T16:12:26.211Z,7.53
2019-02-23T16:14:01.145Z,7.50
2019-02-23T16:15:36.061Z,8.18
2019-02-23T16:17:11.033Z,7.55
2019-02-23T16:18:45.836Z,7.35
2019-02-23T16:20:21.108Z,7.67
2019-02-23T16:21:56.050Z,7.65
2019-02-23T16:23:35.401Z,8.10
2019-02-23T16:25:08.106Z,8.25
2019-02-23T16:26:42.962Z,6.95
2019-02-23T16:28:18.007Z,7.65
2019-02-23T16:29:52.815Z,7.67
2019-02-23T16:31:27.837Z,8.05
2019-02-23T16:33:02.915Z,8.00
2019-02-23T16:34:38.024Z,8.48
2019-02-23T16:36:12.907Z,7.80
2019-02-23T16:37:47.564Z,7.67
2019-02-23T16:39:21.989Z,7.87
2019-02-23T16:40:56.494Z,8.40
2019-02-23T16:42:31.347Z,7.40
2019-02-23T16:44:05.737Z,7.97
2019-02-23T16:45:40.254Z,7.50
2019-02-23T16:47:15.117Z,8.83
2019-02-23T16:48:49.485Z,8.40
2019-02-23T16:50:24.106Z,9.05
2019-02-23T16:51:58.731Z,8.58
2019-02-23T16:53:33.409Z,8.90
2019-02-23T16:55:07.971Z,8.43
2019-02-23T16:56:42.743Z,8.23
2019-02-23T16:58:17.577Z,8.78
2019-02-23T16:59:52.349Z,7.90
2019-02-23T17:01:27.185Z,9.25
2019-02-23T17:03:01.634Z,9.38
2019-02-23T17:04:36.325Z,9.48
2019-02-23T17:06:11.336Z,9.13
2019-02-23T17:07:46.359Z,9.73
2019-02-23T17:09:21.685Z,8.18
2019-02-23T17:10:56.466Z,8.78
2019-02-23T17:12:31.539Z,8.45
2019-02-23T17:14:06.578Z,8.18
2019-02-23T17:15:41.404Z,8.03
2019-02-23T17:17:16.207Z,8.03
2019-02-23T17:18:51.054Z,8.25
2019-02-23T17:20:25.902Z,7.60
2019-02-23T17:22:00.735Z,7.50
2019-02-23T17:23:35.582Z,7.25
2019-02-23T17:25:10.808Z,7.78
2019-02-23T17:26:45.620Z,8.08
2019-02-23T17:28:20.660Z,7.35
2019-02-23T17:29:55.477Z,8.58
2019-02-23T17:31:30.508Z,8.90
2019-02-23T17:33:05.309Z,8.43
2019-02-23T17:34:40.357Z,8.63
2019-02-23T17:36:15.212Z,8.85
2019-02-23T17:37:50.371Z,8.93
2019-02-23T17:39:25.396Z,8.23
2019-02-23T17:41:00.476Z,8.58
2019-02-23T17:42:35.291Z,8.25
2019-02-23T17:44:10.071Z,9.08
2019-02-23T17:45:44.861Z,8.25
2019-02-23T17:47:19.892Z,8.90
2019-02-23T17:48:54.931Z,7.97
2019-02-23T17:50:29.734Z,8.55
2019-02-23T17:52:04.802Z,9.75
2019-02-23T17:53:39.693Z,9.95
2019-02-23T17:55:14.507Z,9.55
2019-02-23T17:56:49.303Z,10.08
2019-02-23T17:58:24.130Z,9.78
2019-02-23T17:59:58.948Z,9.43
2019-02-23T18:01:33.371Z,8.95
2019-02-23T18:03:08.038Z,9.35
2019-02-23T18:04:42.657Z,9.60
2019-02-23T18:06:17.113Z,9.98
2019-02-23T18:07:51.738Z,9.30
2019-02-23T18:09:26.152Z,9.95
2019-02-23T18:11:00.626Z,9.08
2019-02-23T18:12:35.073Z,9.53
2019-02-23T18:14:09.453Z,9.85
2019-02-23T18:15:43.866Z,9.65
2019-02-23T18:17:18.914Z,9.83
2019-02-23T18:18:53.274Z,10.53
2019-02-23T18:20:27.768Z,12.23
2019-02-23T18:22:02.621Z,11.80
2019-02-23T18:23:37.517Z,11.25
2019-02-23T18:25:12.142Z,13.35
2019-02-23T18:26:46.738Z,12.07
2019-02-23T18:28:21.397Z,11.60
2019-02-23T18:29:56.036Z,11.40
2019-02-23T18:31:30.409Z,12.05
2019-02-23T18:33:04.916Z,13.28
2019-02-23T18:34:39.638Z,13.95
2019-02-23T18:36:14.121Z,13.55
2019-02-23T18:37:49.023Z,14.07
2019-02-23T18:39:23.523Z,14.30
2019-02-23T18:40:57.908Z,14.50
2019-02-23T18:42:32.655Z,14.07
2019-02-23T18:44:07.021Z,15.72
2019-02-23T18:45:47.238Z,15.00
2019-02-23T18:47:17.561Z,13.90
2019-02-23T18:48:52.354Z,14.58
2019-02-23T18:50:27.278Z,13.98
2019-02-23T18:52:01.990Z,15.25
2019-02-23T18:53:36.350Z,14.38
2019-02-23T18:55:11.193Z,15.65
2019-02-23T18:56:45.606Z,14.87
2019-02-23T18:58:21.134Z,14.65
2019-02-23T18:59:55.531Z,15.25
2019-02-23T19:01:30.406Z,14.90
2019-02-23T19:03:04.913Z,13.88
2019-02-23T19:04:39.318Z,15.48
2019-02-23T19:06:13.965Z,13.40
2019-02-23T19:07:48.361Z,13.00
2019-02-23T19:09:22.776Z,13.22
2019-02-23T19:10:57.412Z,13.20
2019-02-23T19:12:31.909Z,13.50
2019-02-23T19:14:06.324Z,12.70
2019-02-23T19:15:40.758Z,12.20
2019-02-23T19:17:15.630Z,12.20
2019-02-23T19:18:50.254Z,11.80
2019-02-23T19:20:24.735Z,11.22
2019-02-23T19:21:59.201Z,11.28
2019-02-23T19:23:34.242Z,11.22
2019-02-23T19:25:09.870Z,9.98
2019-02-23T19:26:44.529Z,10.60
2019-02-23T19:28:18.919Z,11.45
2019-02-23T19:29:53.293Z,10.03
2019-02-23T19:31:27.969Z,11.75
2019-02-23T19:33:02.622Z,13.28
2019-02-23T19:34:37.103Z,13.95
2019-02-23T19:36:11.778Z,13.95
2019-02-23T19:37:46.381Z,11.55
2019-02-23T19:39:21.095Z,12.30
2019-02-23T19:40:55.470Z,12.98
2019-02-23T19:42:30.141Z,12.73
2019-02-23T19:44:05.165Z,13.13
2019-02-23T19:45:39.617Z,13.08
2019-02-23T19:47:16.824Z,14.00
2019-02-23T19:48:51.462Z,13.93
2019-02-23T19:50:32.430Z,12.10
2019-02-23T19:52:07.473Z,13.22
2019-02-23T19:53:42.138Z,12.18
2019-02-23T19:55:16.821Z,12.85
2019-02-23T19:56:51.484Z,11.97
2019-02-23T19:58:26.697Z,11.65
2019-02-23T20:00:01.158Z,12.55
2019-02-23T20:01:35.535Z,12.35
2019-02-23T20:03:10.624Z,11.57
2019-02-23T20:04:44.988Z,12.10
2019-02-23T20:06:19.384Z,12.40
2019-02-23T20:07:53.753Z,11.93
2019-02-23T20:09:28.381Z,12.15
2019-02-23T20:11:03.106Z,12.50
2019-02-23T20:12:37.833Z,13.40
2019-02-23T20:14:12.217Z,11.95
2019-02-23T20:15:47.061Z,12.58
2019-02-23T20:17:21.517Z,12.28
2019-02-23T20:18:56.303Z,12.55
2019-02-23T20:20:31.262Z,12.47
2019-02-23T20:22:06.043Z,13.13
2019-02-23T20:23:40.915Z,12.53
2019-02-23T20:25:15.639Z,12.15
2019-02-23T20:26:55.705Z,12.68
2019-02-23T20:28:26.594Z,11.43
2019-02-23T20:30:01.197Z,12.07
2019-02-23T20:31:36.163Z,12.63
2019-02-23T20:33:10.767Z,11.75
2019-02-23T20:34:45.569Z,12.28
2019-02-23T20:36:20.376Z,12.70
2019-02-23T20:37:55.478Z,11.88
2019-02-23T20:39:30.294Z,11.78
2019-02-23T20:41:05.665Z,12.40
2019-02-23T20:42:40.165Z,12.33
2019-02-23T20:44:14.730Z,11.22
2019-02-23T20:45:49.438Z,12.18
2019-02-23T20:47:24.042Z,11.95
2019-02-23T20:48:58.663Z,11.80
2019-02-23T20:50:33.883Z,12.45
2019-02-23T20:52:08.733Z,11.88
2019-02-23T20:53:43.377Z,11.85
2019-02-23T20:55:18.060Z,12.70
2019-02-23T20:56:53.287Z,11.70
2019-02-23T20:58:28.331Z,11.22
2019-02-23T21:00:03.174Z,11.63
2019-02-23T21:01:38.195Z,12.88
2019-02-23T21:03:13.318Z,12.47
2019-02-23T21:04:48.099Z,12.28
2019-02-23T21:06:22.801Z,13.25
2019-02-23T21:07:57.266Z,13.18
2019-02-23T21:09:31.736Z,14.43
2019-02-23T21:11:07.025Z,13.93
2019-02-23T21:12:41.793Z,12.95
2019-02-23T21:14:16.869Z,12.73
2019-02-23T21:15:51.900Z,12.00
2019-02-23T21:17:26.596Z,12.60
2019-02-23T21:19:01.560Z,12.25
2019-02-23T21:20:36.033Z,13.43
2019-02-23T21:22:10.458Z,12.70
2019-02-23T21:23:45.466Z,12.28
2019-02-23T21:25:20.228Z,13.13
2019-02-23T21:26:55.057Z,12.37
2019-02-23T21:28:30.070Z,12.85
2019-02-23T21:30:05.318Z,13.28
2019-02-23T21:31:40.465Z,13.83
2019-02-23T21:33:15.226Z,14.10
2019-02-23T21:34:50.670Z,12.07
2019-02-23T21:36:25.038Z,13.38
2019-02-23T21:37:59.712Z,12.70
2019-02-23T21:39:34.363Z,12.15